ROMMA est une association bénévole à but non lucratif. Votre soutien est indispensable : ADHERER à ROMMA ou FAIRE un DON

Die - (26, Drôme)

Diois (400 m)   Longitude: 5° 21' 55"E   Latitude: 44° 45' 16"N Station partenaire n°159
 

Détail journalier du     <<     >>

Température Precipitation Humidité Pression Vent Dir Rafale Dir. rafale Ensol.
Heure (°C) (mm) (%) (hPa) (km/h) (km/h) (min)
01:00 9.7092102003SSO0
02:00 9.4094102002SSO0
03:00 8.90941019000
04:00 8.3094101903SSO0
05:00 7.9094101903SSO0
06:00 7.4095101803SSO0
07:00 6.6095101803SSO0
08:00 6.909610181SSE5SE0
09:00 8.2096101903SO0
10:00 10.2096101903SO0
11:00 16.307810182O6O60
12:00 21.405510172O8O60
13:00 25.403810175SSE15NO60
14:00 26.003810165E21SE60
15:00 25.404010154ESE21S0
16:00 24.504410144ESE23OSO0
17:00 24.304510143NE13SO0
18:00 24.704610133SSE15SO60
19:00 23.704910135SSO24SSO30
20:00 22.705110143SSO15SO0
21:00 22.105110133S16S0
22:00 20.705410132ESE8SSE0
23:00 21.405610124E21SSO0
minuit 21.305210113SE16SSE0

Graphique du 14-10-2019

 

Serveur OMMA